sensor_id;sensor_type;location;lat;lon;timestamp;pressure;altitude;pressure_sealevel;temperature;humidity
54248;BME280;40161;39.768;2.722;2023-02-03T00:00:26;102621.50;;;4.28;97.70
54248;BME280;40161;39.768;2.722;2023-02-03T00:02:53;102660.41;;;4.84;99.37
54248;BME280;40161;39.768;2.722;2023-02-03T00:05:19;102652.00;;;4.80;98.47
54248;BME280;40161;39.768;2.722;2023-02-03T00:07:46;102643.59;;;4.76;99.08
54248;BME280;40161;39.768;2.722;2023-02-03T00:10:11;102651.03;;;5.05;99.68
54248;BME280;40161;39.768;2.722;2023-02-03T00:12:37;102664.03;;;5.18;97.84
54248;BME280;40161;39.768;2.722;2023-02-03T00:15:03;102646.09;;;5.12;98.67
54248;BME280;40161;39.768;2.722;2023-02-03T00:17:29;102644.47;;;5.16;99.60
54248;BME280;40161;39.768;2.722;2023-02-03T00:19:54;102628.25;;;4.96;98.51
54248;BME280;40161;39.768;2.722;2023-02-03T00:22:20;102648.81;;;5.12;99.62
54248;BME280;40161;39.768;2.722;2023-02-03T00:24:45;102650.28;;;4.99;99.31
54248;BME280;40161;39.768;2.722;2023-02-03T00:27:11;102629.06;;;4.91;99.74
54248;BME280;40161;39.768;2.722;2023-02-03T00:29:36;102635.38;;;4.87;100.00
54248;BME280;40161;39.768;2.722;2023-02-03T00:32:02;102650.16;;;5.15;100.00
54248;BME280;40161;39.768;2.722;2023-02-03T00:34:29;102644.47;;;5.11;99.73
54248;BME280;40161;39.768;2.722;2023-02-03T00:36:55;102558.78;;;4.64;100.00
54248;BME280;40161;39.768;2.722;2023-02-03T00:39:20;102614.91;;;4.99;98.70
54248;BME280;40161;39.768;2.722;2023-02-03T00:41:47;102649.28;;;5.24;100.00
54248;BME280;40161;39.768;2.722;2023-02-03T00:44:14;102641.13;;;5.19;98.71
54248;BME280;40161;39.768;2.722;2023-02-03T00:46:40;102626.03;;;5.03;98.55
54248;BME280;40161;39.768;2.722;2023-02-03T00:49:06;102627.47;;;5.30;99.10
54248;BME280;40161;39.768;2.722;2023-02-03T00:51:34;102615.97;;;4.98;96.56
54248;BME280;40161;39.768;2.722;2023-02-03T00:53:59;102636.31;;;5.11;99.77
54248;BME280;40161;39.768;2.722;2023-02-03T00:56:25;102629.69;;;5.22;100.00
54248;BME280;40161;39.768;2.722;2023-02-03T00:58:50;102606.78;;;5.29;99.57
54248;BME280;40161;39.768;2.722;2023-02-03T01:01:16;102627.88;;;5.13;97.59
54248;BME280;40161;39.768;2.722;2023-02-03T01:03:42;102622.50;;;5.03;98.48
54248;BME280;40161;39.768;2.722;2023-02-03T01:06:12;102594.75;;;5.00;99.19
54248;BME280;40161;39.768;2.722;2023-02-03T01:08:38;102629.75;;;5.17;98.63
54248;BME280;40161;39.768;2.722;2023-02-03T01:11:15;102616.38;;;5.21;99.25
54248;BME280;40161;39.768;2.722;2023-02-03T01:13:42;102634.41;;;5.12;96.60
54248;BME280;40161;39.768;2.722;2023-02-03T01:16:10;102628.50;;;4.99;98.32
54248;BME280;40161;39.768;2.722;2023-02-03T01:18:37;102639.63;;;5.03;99.57
54248;BME280;40161;39.768;2.722;2023-02-03T01:21:18;102621.59;;;5.12;99.36
54248;BME280;40161;39.768;2.722;2023-02-03T01:23:45;102630.00;;;5.21;100.00
54248;BME280;40161;39.768;2.722;2023-02-03T01:26:13;102622.31;;;5.28;97.56
54248;BME280;40161;39.768;2.722;2023-02-03T01:28:39;102621.16;;;4.95;98.02
54248;BME280;40161;39.768;2.722;2023-02-03T01:33:34;102637.94;;;5.12;97.94
54248;BME280;40161;39.768;2.722;2023-02-03T01:36:00;102618.38;;;5.05;98.05
54248;BME280;40161;39.768;2.722;2023-02-03T01:38:26;102604.50;;;5.07;99.13
54248;BME280;40161;39.768;2.722;2023-02-03T01:40:51;102574.97;;;4.85;98.26
54248;BME280;40161;39.768;2.722;2023-02-03T01:43:32;102557.41;;;4.67;98.04
54248;BME280;40161;39.768;2.722;2023-02-03T01:46:01;102552.19;;;4.75;99.72
54248;BME280;40161;39.768;2.722;2023-02-03T01:48:30;102572.47;;;4.93;98.72
54248;BME280;40161;39.768;2.722;2023-02-03T01:51:01;102592.38;;;4.89;98.99
54248;BME280;40161;39.768;2.722;2023-02-03T01:53:28;102583.06;;;4.95;99.88
54248;BME280;40161;39.768;2.722;2023-02-03T01:55:54;102582.81;;;4.91;99.28
54248;BME280;40161;39.768;2.722;2023-02-03T01:58:23;102591.22;;;5.00;99.51
54248;BME280;40161;39.768;2.722;2023-02-03T02:00:52;102604.69;;;5.20;99.76
54248;BME280;40161;39.768;2.722;2023-02-03T02:03:20;102611.78;;;5.16;98.20
54248;BME280;40161;39.768;2.722;2023-02-03T02:06:00;102615.66;;;5.05;98.82
54248;BME280;40161;39.768;2.722;2023-02-03T02:08:27;102595.88;;;4.94;99.48
54248;BME280;40161;39.768;2.722;2023-02-03T02:10:55;102550.09;;;4.62;100.00
54248;BME280;40161;39.768;2.722;2023-02-03T02:13:21;102590.41;;;4.99;99.73
54248;BME280;40161;39.768;2.722;2023-02-03T02:15:57;102570.94;;;4.77;99.93
54248;BME280;40161;39.768;2.722;2023-02-03T02:18:39;102577.63;;;4.95;99.92
54248;BME280;40161;39.768;2.722;2023-02-03T02:22:07;102606.34;;;5.16;99.21
54248;BME280;40161;39.768;2.722;2023-02-03T02:30:11;102615.88;;;5.14;100.00
54248;BME280;40161;39.768;2.722;2023-02-03T02:33:00;102555.09;;;4.89;99.73
54248;BME280;40161;39.768;2.722;2023-02-03T02:35:38;102605.09;;;5.33;99.89
54248;BME280;40161;39.768;2.722;2023-02-03T02:43:58;102582.75;;;5.36;97.63
54248;BME280;40161;39.768;2.722;2023-02-03T02:46:34;102556.50;;;5.21;97.13
54248;BME280;40161;39.768;2.722;2023-02-03T02:49:21;102589.09;;;5.26;96.87
54248;BME280;40161;39.768;2.722;2023-02-03T02:51:50;102579.63;;;5.18;98.08
54248;BME280;40161;39.768;2.722;2023-02-03T02:54:19;102579.88;;;5.22;98.47
54248;BME280;40161;39.768;2.722;2023-02-03T02:56:50;102565.69;;;5.30;98.04
54248;BME280;40161;39.768;2.722;2023-02-03T02:59:18;102586.03;;;5.38;96.78
54248;BME280;40161;39.768;2.722;2023-02-03T03:01:44;102575.13;;;5.38;97.63
54248;BME280;40161;39.768;2.722;2023-02-03T03:04:11;102562.97;;;5.25;98.18
54248;BME280;40161;39.768;2.722;2023-02-03T03:06:43;102582.16;;;5.44;98.01
54248;BME280;40161;39.768;2.722;2023-02-03T03:09:15;102580.75;;;5.46;98.10
54248;BME280;40161;39.768;2.722;2023-02-03T03:11:48;102573.59;;;5.56;97.72
54248;BME280;40161;39.768;2.722;2023-02-03T03:14:17;102544.38;;;5.37;97.89
54248;BME280;40161;39.768;2.722;2023-02-03T03:16:47;102556.22;;;5.52;97.38
54248;BME280;40161;39.768;2.722;2023-02-03T03:19:20;102546.75;;;5.44;96.08
54248;BME280;40161;39.768;2.722;2023-02-03T03:21:52;102552.44;;;5.47;95.51
54248;BME280;40161;39.768;2.722;2023-02-03T03:24:31;102571.13;;;5.59;96.65
54248;BME280;40161;39.768;2.722;2023-02-03T03:27:03;102558.13;;;5.51;95.55
54248;BME280;40161;39.768;2.722;2023-02-03T03:32:03;102542.16;;;5.39;96.32
54248;BME280;40161;39.768;2.722;2023-02-03T03:34:29;102565.66;;;5.59;95.68
54248;BME280;40161;39.768;2.722;2023-02-03T03:42:50;102582.22;;;5.97;93.84
54248;BME280;40161;39.768;2.722;2023-02-03T03:45:26;102563.44;;;5.96;91.72
54248;BME280;40161;39.768;2.722;2023-02-03T03:53:33;102591.50;;;5.91;93.95
54248;BME280;40161;39.768;2.722;2023-02-03T03:56:02;102562.91;;;5.93;92.25
54248;BME280;40161;39.768;2.722;2023-02-03T03:58:30;102556.34;;;5.94;93.33
54248;BME280;40161;39.768;2.722;2023-02-03T04:01:02;102583.19;;;6.30;92.56
54248;BME280;40161;39.768;2.722;2023-02-03T04:06:07;102572.88;;;6.46;89.92
54248;BME280;40161;39.768;2.722;2023-02-03T04:08:33;102581.38;;;6.63;89.75
54248;BME280;40161;39.768;2.722;2023-02-03T04:10:58;102561.75;;;6.42;88.83
54248;BME280;40161;39.768;2.722;2023-02-03T04:13:24;102586.78;;;6.69;88.93
54248;BME280;40161;39.768;2.722;2023-02-03T04:15:49;102586.09;;;6.77;88.11
54248;BME280;40161;39.768;2.722;2023-02-03T04:18:15;102588.25;;;6.80;88.58
54248;BME280;40161;39.768;2.722;2023-02-03T04:20:41;102578.97;;;6.62;88.98
54248;BME280;40161;39.768;2.722;2023-02-03T04:23:07;102546.53;;;6.36;88.57
54248;BME280;40161;39.768;2.722;2023-02-03T04:25:33;102568.47;;;6.50;89.41
54248;BME280;40161;39.768;2.722;2023-02-03T04:27:59;102567.47;;;6.65;89.99
54248;BME280;40161;39.768;2.722;2023-02-03T04:30:25;102566.66;;;6.64;88.27
54248;BME280;40161;39.768;2.722;2023-02-03T04:32:50;102583.44;;;6.90;88.10
54248;BME280;40161;39.768;2.722;2023-02-03T04:35:17;102561.19;;;6.83;87.02
54248;BME280;40161;39.768;2.722;2023-02-03T04:37:43;102565.25;;;6.86;86.72
54248;BME280;40161;39.768;2.722;2023-02-03T04:40:09;102558.06;;;6.90;86.52
54248;BME280;40161;39.768;2.722;2023-02-03T04:42:39;102572.53;;;6.90;86.23
54248;BME280;40161;39.768;2.722;2023-02-03T04:45:06;102504.41;;;6.48;87.35
54248;BME280;40161;39.768;2.722;2023-02-03T04:47:32;102574.41;;;6.95;86.79
54248;BME280;40161;39.768;2.722;2023-02-03T04:49:58;102572.47;;;6.96;85.82
54248;BME280;40161;39.768;2.722;2023-02-03T04:52:23;102582.78;;;6.80;85.55
54248;BME280;40161;39.768;2.722;2023-02-03T04:54:49;102573.34;;;6.91;87.96
54248;BME280;40161;39.768;2.722;2023-02-03T04:57:14;102554.81;;;6.88;87.48
54248;BME280;40161;39.768;2.722;2023-02-03T04:59:40;102537.50;;;6.79;87.26
54248;BME280;40161;39.768;2.722;2023-02-03T05:02:05;102541.13;;;6.93;87.47
54248;BME280;40161;39.768;2.722;2023-02-03T05:04:32;102569.16;;;6.99;85.92
54248;BME280;40161;39.768;2.722;2023-02-03T05:06:58;102570.59;;;6.91;86.33
54248;BME280;40161;39.768;2.722;2023-02-03T05:09:24;102504.97;;;6.63;86.67
54248;BME280;40161;39.768;2.722;2023-02-03T05:11:50;102557.97;;;7.14;86.33
54248;BME280;40161;39.768;2.722;2023-02-03T05:14:16;102551.19;;;7.11;84.92
54248;BME280;40161;39.768;2.722;2023-02-03T05:16:42;102581.84;;;7.41;84.35
54248;BME280;40161;39.768;2.722;2023-02-03T05:19:07;102528.50;;;6.97;84.04
54248;BME280;40161;39.768;2.722;2023-02-03T05:21:33;102570.59;;;6.91;85.20
54248;BME280;40161;39.768;2.722;2023-02-03T05:23:59;102580.16;;;6.75;87.86
54248;BME280;40161;39.768;2.722;2023-02-03T05:26:24;102573.41;;;6.67;87.85
54248;BME280;40161;39.768;2.722;2023-02-03T05:28:50;102566.19;;;6.76;87.68
54248;BME280;40161;39.768;2.722;2023-02-03T05:31:16;102599.78;;;6.96;86.68
54248;BME280;40161;39.768;2.722;2023-02-03T05:33:41;102560.16;;;6.79;86.47
54248;BME280;40161;39.768;2.722;2023-02-03T05:36:07;102590.22;;;7.12;86.26
54248;BME280;40161;39.768;2.722;2023-02-03T05:38:33;102586.72;;;6.93;84.99
54248;BME280;40161;39.768;2.722;2023-02-03T05:40:58;102583.00;;;6.83;86.19
54248;BME280;40161;39.768;2.722;2023-02-03T05:43:42;102597.63;;;6.93;86.59
54248;BME280;40161;39.768;2.722;2023-02-03T05:46:08;102602.88;;;6.89;87.18
54248;BME280;40161;39.768;2.722;2023-02-03T05:48:33;102604.91;;;6.97;86.64
54248;BME280;40161;39.768;2.722;2023-02-03T05:50:59;102619.16;;;6.94;86.02
54248;BME280;40161;39.768;2.722;2023-02-03T05:53:25;102611.06;;;6.89;85.96
54248;BME280;40161;39.768;2.722;2023-02-03T05:55:51;102573.72;;;6.65;85.42
54248;BME280;40161;39.768;2.722;2023-02-03T05:58:20;102622.03;;;6.84;84.64
54248;BME280;40161;39.768;2.722;2023-02-03T06:00:46;102608.00;;;6.90;85.05
54248;BME280;40161;39.768;2.722;2023-02-03T06:03:11;102623.50;;;6.76;84.10
54248;BME280;40161;39.768;2.722;2023-02-03T06:05:37;102613.94;;;6.79;85.08
54248;BME280;40161;39.768;2.722;2023-02-03T06:08:08;102616.06;;;6.82;85.37
54248;BME280;40161;39.768;2.722;2023-02-03T06:10:34;102613.16;;;6.73;85.36
54248;BME280;40161;39.768;2.722;2023-02-03T06:13:10;102595.59;;;6.60;85.59
54248;BME280;40161;39.768;2.722;2023-02-03T06:15:36;102602.34;;;6.68;85.33
54248;BME280;40161;39.768;2.722;2023-02-03T06:18:02;102599.00;;;6.52;86.44
54248;BME280;40161;39.768;2.722;2023-02-03T06:20:27;102603.28;;;6.58;86.09
54248;BME280;40161;39.768;2.722;2023-02-03T06:22:53;102601.13;;;6.55;86.35
54248;BME280;40161;39.768;2.722;2023-02-03T06:25:19;102592.63;;;6.38;86.24
54248;BME280;40161;39.768;2.722;2023-02-03T06:27:45;102598.78;;;6.49;85.72
54248;BME280;40161;39.768;2.722;2023-02-03T06:30:11;102643.13;;;6.78;85.96
54248;BME280;40161;39.768;2.722;2023-02-03T06:32:36;102602.97;;;6.60;84.74
54248;BME280;40161;39.768;2.722;2023-02-03T06:35:02;102542.66;;;6.00;84.55
54248;BME280;40161;39.768;2.722;2023-02-03T06:37:28;102639.09;;;6.52;85.19
54248;BME280;40161;39.768;2.722;2023-02-03T06:39:55;102643.69;;;6.56;86.24
54248;BME280;40161;39.768;2.722;2023-02-03T06:42:20;102648.44;;;6.70;85.35
54248;BME280;40161;39.768;2.722;2023-02-03T06:44:46;102617.31;;;6.28;85.66
54248;BME280;40161;39.768;2.722;2023-02-03T06:47:12;102655.63;;;6.36;85.52
54248;BME280;40161;39.768;2.722;2023-02-03T06:49:42;102654.38;;;6.29;86.66
54248;BME280;40161;39.768;2.722;2023-02-03T06:52:07;102659.19;;;6.37;87.35
54248;BME280;40161;39.768;2.722;2023-02-03T06:54:33;102670.81;;;6.48;85.86
54248;BME280;40161;39.768;2.722;2023-02-03T06:56:58;102673.81;;;6.46;86.87
54248;BME280;40161;39.768;2.722;2023-02-03T06:59:25;102664.03;;;6.40;86.04
54248;BME280;40161;39.768;2.722;2023-02-03T07:01:51;102666.44;;;6.47;86.72
54248;BME280;40161;39.768;2.722;2023-02-03T07:04:17;102667.84;;;6.44;85.62
54248;BME280;40161;39.768;2.722;2023-02-03T07:06:44;102693.34;;;6.29;85.28
54248;BME280;40161;39.768;2.722;2023-02-03T07:09:10;102681.94;;;6.27;87.45
54248;BME280;40161;39.768;2.722;2023-02-03T07:11:35;102659.53;;;6.06;86.78
54248;BME280;40161;39.768;2.722;2023-02-03T07:14:01;102672.28;;;5.82;87.52
54248;BME280;40161;39.768;2.722;2023-02-03T07:16:26;102679.28;;;5.93;89.62
54248;BME280;40161;39.768;2.722;2023-02-03T07:18:53;102674.06;;;5.97;89.23
54248;BME280;40161;39.768;2.722;2023-02-03T07:21:19;102700.66;;;6.10;88.84
54248;BME280;40161;39.768;2.722;2023-02-03T07:23:48;102650.56;;;5.71;89.21
54248;BME280;40161;39.768;2.722;2023-02-03T07:26:14;102696.66;;;6.02;88.45
54248;BME280;40161;39.768;2.722;2023-02-03T07:28:40;102699.94;;;5.99;89.48
54248;BME280;40161;39.768;2.722;2023-02-03T07:31:07;102693.28;;;5.76;89.35
54248;BME280;40161;39.768;2.722;2023-02-03T07:33:35;102716.38;;;5.84;90.91
54248;BME280;40161;39.768;2.722;2023-02-03T07:36:01;102711.88;;;5.69;91.13
54248;BME280;40161;39.768;2.722;2023-02-03T07:38:28;102707.41;;;5.83;91.72
54248;BME280;40161;39.768;2.722;2023-02-03T07:40:54;102705.16;;;5.96;91.45
54248;BME280;40161;39.768;2.722;2023-02-03T07:43:19;102695.31;;;5.94;91.04
54248;BME280;40161;39.768;2.722;2023-02-03T07:45:45;102717.25;;;6.13;90.85
54248;BME280;40161;39.768;2.722;2023-02-03T07:48:11;102699.88;;;6.04;89.74
54248;BME280;40161;39.768;2.722;2023-02-03T07:50:37;102703.22;;;5.91;89.71
54248;BME280;40161;39.768;2.722;2023-02-03T07:53:03;102719.28;;;5.98;90.29
54248;BME280;40161;39.768;2.722;2023-02-03T07:55:29;102735.03;;;6.06;90.76
54248;BME280;40161;39.768;2.722;2023-02-03T07:57:58;102727.84;;;6.15;90.88
54248;BME280;40161;39.768;2.722;2023-02-03T08:00:24;102730.91;;;6.08;90.53
54248;BME280;40161;39.768;2.722;2023-02-03T08:02:50;102725.47;;;6.08;90.78
54248;BME280;40161;39.768;2.722;2023-02-03T08:05:16;102732.69;;;5.89;91.18
54248;BME280;40161;39.768;2.722;2023-02-03T08:07:43;102719.66;;;5.81;92.89
54248;BME280;40161;39.768;2.722;2023-02-03T08:10:10;102734.59;;;5.93;92.81
54248;BME280;40161;39.768;2.722;2023-02-03T08:12:36;102736.44;;;5.98;93.13
54248;BME280;40161;39.768;2.722;2023-02-03T08:15:02;102724.50;;;5.94;92.94
54248;BME280;40161;39.768;2.722;2023-02-03T08:17:28;102717.13;;;5.94;93.49
54248;BME280;40161;39.768;2.722;2023-02-03T08:19:54;102717.66;;;5.97;93.08
54248;BME280;40161;39.768;2.722;2023-02-03T08:22:19;102725.34;;;5.89;92.14
54248;BME280;40161;39.768;2.722;2023-02-03T08:24:45;102742.28;;;6.15;93.00
54248;BME280;40161;39.768;2.722;2023-02-03T08:27:13;102714.56;;;6.08;93.26
54248;BME280;40161;39.768;2.722;2023-02-03T08:29:38;102741.63;;;6.29;90.97
54248;BME280;40161;39.768;2.722;2023-02-03T08:32:04;102738.00;;;6.09;92.35
54248;BME280;40161;39.768;2.722;2023-02-03T08:34:30;102748.13;;;6.04;93.68
54248;BME280;40161;39.768;2.722;2023-02-03T08:36:58;102759.56;;;6.06;95.61
54248;BME280;40161;39.768;2.722;2023-02-03T08:39:24;102765.75;;;6.16;95.02
54248;BME280;40161;39.768;2.722;2023-02-03T08:41:49;102746.75;;;6.06;95.64
54248;BME280;40161;39.768;2.722;2023-02-03T08:44:15;102748.63;;;6.11;95.61
54248;BME280;40161;39.768;2.722;2023-02-03T08:46:42;102716.06;;;5.96;95.21
54248;BME280;40161;39.768;2.722;2023-02-03T08:49:09;102762.69;;;6.23;95.31
54248;BME280;40161;39.768;2.722;2023-02-03T08:51:35;102765.31;;;6.33;95.39
54248;BME280;40161;39.768;2.722;2023-02-03T08:54:00;102770.19;;;6.36;95.57
54248;BME280;40161;39.768;2.722;2023-02-03T08:56:26;102779.78;;;6.34;95.19
54248;BME280;40161;39.768;2.722;2023-02-03T08:58:52;102738.50;;;6.16;94.80
54248;BME280;40161;39.768;2.722;2023-02-03T09:01:17;102778.13;;;6.33;94.97
54248;BME280;40161;39.768;2.722;2023-02-03T09:03:43;102795.59;;;6.32;95.08
54248;BME280;40161;39.768;2.722;2023-02-03T09:06:09;102788.53;;;6.31;96.41
54248;BME280;40161;39.768;2.722;2023-02-03T09:08:42;102794.97;;;6.40;96.19
54248;BME280;40161;39.768;2.722;2023-02-03T09:11:09;102789.41;;;6.50;96.40
54248;BME280;40161;39.768;2.722;2023-02-03T09:13:36;102776.38;;;6.47;96.47
54248;BME280;40161;39.768;2.722;2023-02-03T09:16:06;102796.59;;;6.70;97.42
54248;BME280;40161;39.768;2.722;2023-02-03T09:18:32;102805.53;;;6.76;96.75
54248;BME280;40161;39.768;2.722;2023-02-03T09:21:02;102794.53;;;6.81;98.60
54248;BME280;40161;39.768;2.722;2023-02-03T09:23:27;102807.16;;;7.01;98.25
54248;BME280;40161;39.768;2.722;2023-02-03T09:25:53;102811.63;;;7.16;98.04
54248;BME280;40161;39.768;2.722;2023-02-03T09:28:19;102815.06;;;7.26;98.47
54248;BME280;40161;39.768;2.722;2023-02-03T09:30:44;102809.69;;;7.40;98.84
54248;BME280;40161;39.768;2.722;2023-02-03T09:33:11;102755.59;;;7.18;99.40
54248;BME280;40161;39.768;2.722;2023-02-03T09:35:37;102809.63;;;7.64;99.46
54248;BME280;40161;39.768;2.722;2023-02-03T09:38:03;102801.28;;;7.74;98.95
54248;BME280;40161;39.768;2.722;2023-02-03T09:40:33;102817.34;;;7.95;99.04
54248;BME280;40161;39.768;2.722;2023-02-03T09:43:09;102772.16;;;7.83;99.97
54248;BME280;40161;39.768;2.722;2023-02-03T09:45:36;102787.41;;;8.03;99.21
54248;BME280;40161;39.768;2.722;2023-02-03T09:48:08;102756.78;;;8.20;98.11
54248;BME280;40161;39.768;2.722;2023-02-03T09:50:37;102801.28;;;9.00;88.23
54248;BME280;40161;39.768;2.722;2023-02-03T09:53:11;102754.22;;;8.70;89.66
54248;BME280;40161;39.768;2.722;2023-02-03T09:55:43;102793.69;;;9.11;90.01
54248;BME280;40161;39.768;2.722;2023-02-03T09:58:12;102775.91;;;9.08;91.57
54248;BME280;40161;39.768;2.722;2023-02-03T10:00:44;102764.75;;;9.18;92.05
54248;BME280;40161;39.768;2.722;2023-02-03T10:19:51;102815.59;;;10.42;85.23
54248;BME280;40161;39.768;2.722;2023-02-03T10:22:23;102812.47;;;10.57;84.08
54248;BME280;40161;39.768;2.722;2023-02-03T10:27:24;102773.53;;;10.55;81.33
54248;BME280;40161;39.768;2.722;2023-02-03T10:32:27;102811.16;;;10.86;80.63
54248;BME280;40161;39.768;2.722;2023-02-03T10:34:55;102822.19;;;10.95;80.40
54248;BME280;40161;39.768;2.722;2023-02-03T10:37:32;102818.13;;;11.01;79.11
54248;BME280;40161;39.768;2.722;2023-02-03T10:40:02;102818.69;;;11.11;79.60
54248;BME280;40161;39.768;2.722;2023-02-03T10:42:30;102789.06;;;11.00;78.82
54248;BME280;40161;39.768;2.722;2023-02-03T10:45:16;102791.69;;;11.05;78.90
54248;BME280;40161;39.768;2.722;2023-02-03T10:47:52;102802.84;;;11.17;78.19
54248;BME280;40161;39.768;2.722;2023-02-03T10:50:21;102815.81;;;11.34;78.58
54248;BME280;40161;39.768;2.722;2023-02-03T10:52:47;102830.41;;;11.43;78.70
54248;BME280;40161;39.768;2.722;2023-02-03T10:57:47;102803.72;;;11.44;77.72
54248;BME280;40161;39.768;2.722;2023-02-03T11:02:42;102810.03;;;11.61;78.53
54248;BME280;40161;39.768;2.722;2023-02-03T11:05:21;102770.06;;;11.81;78.87
54248;BME280;40161;39.768;2.722;2023-02-03T11:07:49;102776.22;;;11.87;76.92
54248;BME280;40161;39.768;2.722;2023-02-03T11:10:37;102805.19;;;12.19;76.90
54248;BME280;40161;39.768;2.722;2023-02-03T11:13:18;102776.06;;;12.09;76.28
54248;BME280;40161;39.768;2.722;2023-02-03T11:15:57;102812.47;;;12.24;77.89
54248;BME280;40161;39.768;2.722;2023-02-03T11:18:51;102806.34;;;12.18;77.48
54248;BME280;40161;39.768;2.722;2023-02-03T11:22:00;102803.09;;;12.16;77.17
54248;BME280;40161;39.768;2.722;2023-02-03T11:24:19;102769.13;;;11.95;77.33
54248;BME280;40161;39.768;2.722;2023-02-03T11:26:52;102803.88;;;12.17;78.11
54248;BME280;40161;39.768;2.722;2023-02-03T11:29:25;102798.19;;;12.30;77.86
54248;BME280;40161;39.768;2.722;2023-02-03T11:31:54;102802.41;;;12.37;77.20
54248;BME280;40161;39.768;2.722;2023-02-03T11:34:32;102800.09;;;12.39;78.50
54248;BME280;40161;39.768;2.722;2023-02-03T11:37:37;102800.59;;;12.41;78.78
54248;BME280;40161;39.768;2.722;2023-02-03T11:42:31;102739.59;;;12.21;77.44
54248;BME280;40161;39.768;2.722;2023-02-03T11:47:51;102779.66;;;12.57;77.09
54248;BME280;40161;39.768;2.722;2023-02-03T11:50:24;102781.84;;;12.72;77.35
54248;BME280;40161;39.768;2.722;2023-02-03T12:03:46;102755.53;;;12.54;77.04
54248;BME280;40161;39.768;2.722;2023-02-03T12:06:45;102749.00;;;12.58;77.09
54248;BME280;40161;39.768;2.722;2023-02-03T12:09:32;102712.97;;;12.43;77.57
54248;BME280;40161;39.768;2.722;2023-02-03T12:12:27;102752.72;;;12.63;77.57
54248;BME280;40161;39.768;2.722;2023-02-03T12:17:49;102757.25;;;12.67;76.96
54248;BME280;40161;39.768;2.722;2023-02-03T12:23:29;102714.59;;;12.44;76.70
54248;BME280;40161;39.768;2.722;2023-02-03T12:28:54;102743.13;;;12.69;76.96
54248;BME280;40161;39.768;2.722;2023-02-03T12:34:27;102735.69;;;12.69;77.50
54248;BME280;40161;39.768;2.722;2023-02-03T12:37:21;102724.19;;;12.67;76.60
54248;BME280;40161;39.768;2.722;2023-02-03T12:39:52;102720.28;;;12.68;77.10
54248;BME280;40161;39.768;2.722;2023-02-03T12:42:31;102654.38;;;12.33;76.41
54248;BME280;40161;39.768;2.722;2023-02-03T12:45:12;102690.72;;;12.56;75.87
54248;BME280;40161;39.768;2.722;2023-02-03T12:53:29;102707.56;;;12.85;75.67
54248;BME280;40161;39.768;2.722;2023-02-03T12:56:00;102706.91;;;12.88;75.33
54248;BME280;40161;39.768;2.722;2023-02-03T12:58:59;102712.41;;;12.88;75.25
54248;BME280;40161;39.768;2.722;2023-02-03T13:01:39;102688.31;;;12.76;75.24
54248;BME280;40161;39.768;2.722;2023-02-03T13:04:10;102675.34;;;12.76;74.65
54248;BME280;40161;39.768;2.722;2023-02-03T13:07:03;102700.53;;;12.96;75.24
54248;BME280;40161;39.768;2.722;2023-02-03T13:09:52;102683.19;;;12.95;75.32
54248;BME280;40161;39.768;2.722;2023-02-03T13:12:29;102694.69;;;12.97;75.38
54248;BME280;40161;39.768;2.722;2023-02-03T13:17:59;102689.84;;;12.94;75.77
54248;BME280;40161;39.768;2.722;2023-02-03T13:20:29;102677.41;;;12.88;76.02
54248;BME280;40161;39.768;2.722;2023-02-03T13:22:56;102668.34;;;12.88;75.61
54248;BME280;40161;39.768;2.722;2023-02-03T13:44:42;102667.97;;;12.89;76.92
54248;BME280;40161;39.768;2.722;2023-02-03T13:47:15;102665.72;;;12.91;77.19
54248;BME280;40161;39.768;2.722;2023-02-03T13:49:45;102667.81;;;12.94;76.78
54248;BME280;40161;39.768;2.722;2023-02-03T13:52:35;102630.81;;;12.74;76.38
54248;BME280;40161;39.768;2.722;2023-02-03T13:55:03;102633.22;;;12.76;77.67
54248;BME280;40161;39.768;2.722;2023-02-03T13:57:36;102626.78;;;12.72;77.08
54248;BME280;40161;39.768;2.722;2023-02-03T14:00:05;102656.50;;;12.87;77.86
54248;BME280;40161;39.768;2.722;2023-02-03T14:02:44;102656.16;;;12.89;77.83
54248;BME280;40161;39.768;2.722;2023-02-03T14:05:39;102663.75;;;12.92;77.36
54248;BME280;40161;39.768;2.722;2023-02-03T14:16:40;102638.28;;;12.74;77.96
54248;BME280;40161;39.768;2.722;2023-02-03T14:24:31;102661.00;;;12.92;76.39
54248;BME280;40161;39.768;2.722;2023-02-03T14:26:58;102629.22;;;12.73;76.53
54248;BME280;40161;39.768;2.722;2023-02-03T14:29:26;102665.03;;;12.94;75.74
54248;BME280;40161;39.768;2.722;2023-02-03T14:32:20;102657.75;;;12.90;75.70
54248;BME280;40161;39.768;2.722;2023-02-03T14:34:47;102647.75;;;12.85;75.35
54248;BME280;40161;39.768;2.722;2023-02-03T14:37:26;102654.56;;;12.88;75.39
54248;BME280;40161;39.768;2.722;2023-02-03T14:48:19;102661.31;;;12.90;75.35
54248;BME280;40161;39.768;2.722;2023-02-03T14:57:33;102657.97;;;12.85;74.76
54248;BME280;40161;39.768;2.722;2023-02-03T15:07:56;102652.72;;;12.71;74.85
54248;BME280;40161;39.768;2.722;2023-02-03T15:10:28;102642.09;;;12.61;74.61
54248;BME280;40161;39.768;2.722;2023-02-03T15:12:56;102671.13;;;12.79;74.14
54248;BME280;40161;39.768;2.722;2023-02-03T15:15:26;102665.47;;;12.75;75.16
54248;BME280;40161;39.768;2.722;2023-02-03T15:17:54;102659.03;;;12.71;74.43
54248;BME280;40161;39.768;2.722;2023-02-03T15:22:51;102658.22;;;12.71;74.44
54248;BME280;40161;39.768;2.722;2023-02-03T15:25:18;102662.13;;;12.70;74.39
54248;BME280;40161;39.768;2.722;2023-02-03T15:27:46;102641.47;;;12.55;74.55
54248;BME280;40161;39.768;2.722;2023-02-03T15:30:24;102656.00;;;12.64;74.63
54248;BME280;40161;39.768;2.722;2023-02-03T15:33:06;102670.72;;;12.68;74.04
54248;BME280;40161;39.768;2.722;2023-02-03T15:35:35;102649.25;;;12.53;75.15
54248;BME280;40161;39.768;2.722;2023-02-03T15:38:08;102638.91;;;12.50;74.77
54248;BME280;40161;39.768;2.722;2023-02-03T15:40:48;102672.69;;;12.59;73.95
54248;BME280;40161;39.768;2.722;2023-02-03T15:43:37;102664.50;;;12.50;75.61